Terminal Aerodrome Forecast
Issued by NWS Tampa Bay Area, FL

Home | Current Version | Previous Version | Text Only | Print | Product List | Glossary On
Versions: 1 2 3 4 5 6 7 8 9 10 11 12 13 14 15 16
374
FTUS42 KTBW 280520
TAFSRQ
TAF
KSRQ 280520Z 2806/2906 12004KT P6SM SCT250
     FM282000 28009KT P6SM VCTS BKN040CB BKN070
     FM290000 02007KT P6SM BKN050
     FM290200 07005KT P6SM SCT020 BKN150=

USA.gov is the U.S. government's official web portal to all federal, state and local government web resources and services.